Waynesville, Ohio
Current Conditions -  °F | °C
As of 12:53 AM on Wednesday 28 Jan 2015 (Local Time) from KMGY Reporting Station
Haze Haze  
Wind Chill: 13°   Ceiling: Unl
Heat Index: 13°   Visibility: 6mi
Dew Point: 10°   Wind: 0mph
Humidity: 88%   Direction: NA
Pressure: 30.22"   Gusts: NA
Location:  39.53°N, 84.09°W
Report Text: KMGY 280553Z AUTO 00000KT 6SM BR CLR M11/M12 A3022 RMK AO2 SLP249 I1001 I6001 T11061122 11067 21106 51003
Loading
Personal Weather Stations






























Interactive Weather Map New forecast layout! Learn more

10-Day Weather Forecast

Advertisements
Track Severe Weather on mobile